METAR Data
IDs: Format: Raw Decoded Include TAF

Data at: 2116 UTC 19 May 2019

KEBS 192055Z AUTO 31017KT 10SM BKN017 OVC022 11/10 A2977 RMK AO2
KEBS 192035Z AUTO 29012KT 10SM SCT013 OVC019 11/11 A2977 RMK AO2
KEBS 192015Z AUTO 31014KT 7SM OVC016 10/10 A2976 RMK AO2
KEBS 191955Z AUTO 31015KT 10SM OVC016 10/10 A2975 RMK AO2
KEBS 191935Z AUTO 31015KT 10SM OVC017 11/10 A2974 RMK AO2
KEBS 191915Z AUTO 32013KT 6SM BR OVC015 11/10 A2973 RMK AO2
KEBS 191855Z AUTO 31015KT 10SM OVC016 11/10 A2973 RMK AO2
KEBS 191835Z AUTO 32013KT 10SM BKN016 OVC021 11/10 A2972 RMK AO2
KEBS 191815Z AUTO 32012KT 10SM BKN015 OVC023 11/10 A2971 RMK AO2
KEBS 191755Z AUTO 32016KT 10SM BKN013 OVC017 11/10 A2970 RMK AO2
KEBS 191735Z AUTO 32012G19KT 10SM OVC013 11/11 A2969 RMK AO2
KEBS 191715Z AUTO 32015KT 10SM OVC013 11/11 A2968 RMK AO2
KEBS 191655Z AUTO 34014KT 10SM BKN012 OVC020 11/11 A2967 RMK AO2
KEBS 191635Z AUTO 32015KT 10SM BKN012 OVC017 11/11 A2967 RMK AO2
KEBS 191615Z AUTO 32014G20KT 10SM BKN011 OVC015 10/10 A2967 RMK AO2
KEBS 191555Z AUTO 32013G18KT 6SM BR OVC009 10/10 A2966 RMK AO2
KEBS 191535Z AUTO 32014G20KT 8SM OVC009 10/10 A2965 RMK AO2
KEBS 191515Z AUTO 31014G19KT 7SM OVC011 10/10 A2964 RMK AO2
KEBS 191455Z AUTO 32015KT 10SM OVC011 10/10 A2963 RMK AO2
KEBS 191435Z AUTO 33016KT 10SM OVC011 10/10 A2961 RMK AO2
KEBS 191415Z AUTO 33014KT 10SM BKN009 BKN012 OVC019 10/10 A2960 RMK AO2
KEBS 191355Z AUTO 32015KT 10SM BKN008 BKN012 OVC018 10/10 A2959 RMK AO2
KEBS 191335Z AUTO 33015KT 10SM BKN007 BKN012 OVC019 10/10 A2958 RMK AO2
KEBS 191315Z AUTO 32013KT 10SM BKN007 OVC014 10/10 A2959 RMK AO2
KEBS 191255Z AUTO 33014KT 8SM BKN008 OVC014 10/10 A2959 RMK AO2
KEBS 191235Z AUTO 33013KT 10SM OVC009 10/10 A2959 RMK AO2
KEBS 191215Z AUTO 33014KT 10SM BKN007 OVC011 10/10 A2959 RMK AO2
KEBS 191155Z AUTO 33014KT 10SM OVC007 11/11 A2957 RMK AO2
KEBS 191135Z AUTO 33011KT 10SM OVC008 11/11 A2958 RMK AO2
KEBS 191115Z AUTO 33012KT 10SM OVC007 11/11 A2956 RMK AO2
KEBS 191055Z AUTO 34009KT 10SM OVC007 11/11 A2955 RMK AO2
KEBS 191035Z AUTO 34013KT 10SM OVC006 11/11 A2953 RMK AO2
KEBS 191015Z AUTO 34011KT 10SM OVC008 11/11 A2953 RMK AO2
KEBS 190955Z AUTO 35013KT 10SM -RA BKN008 OVC070 11/11 A2951 RMK AO2
KEBS 190935Z AUTO 34012KT -DZ BKN007 OVC070 12/12 A2953 RMK AO2
KEBS 190915Z AUTO 35015KT 9SM -RA OVC007 12/12 A2951 RMK AO2
KEBS 190855Z AUTO 36014G23KT 10SM BKN006 BKN009 OVC075 13/13 A2951 RMK AO2
KEBS 190835Z AUTO 34018KT 10SM FEW007 OVC070 14/14 A2949 RMK AO2
KEBS 190815Z AUTO 34016G21KT 10SM BKN060 OVC070 14/14 A2950 RMK AO2
KEBS 190755Z AUTO 34017KT 7SM FEW030 SCT040 OVC065 14/14 A2950 RMK AO2 P0001
KEBS 190735Z AUTO 34017G22KT 3SM RA BKN030 OVC037 14/14 A2951 RMK AO2
KEBS 190715Z AUTO 32018G23KT 3SM -RA FEW008 OVC029 14/14 A2952 RMK AO2
KEBS 190655Z AUTO 32020G25KT 1 1/2SM +RA SCT003 BKN007 OVC025 14/14 A2953 RMK AO2 P0004
KEBS 190635Z AUTO 31021G28KT 1 1/4SM +RA OVC006 14/14 A2953 RMK AO2
KEBS 190615Z AUTO 32023G29KT 1 1/2SM +RA OVC006 14/14 A2951 RMK AO2
KEBS 190555Z AUTO 32021G27KT 2SM RA OVC006 15/15 A2951 RMK AO2 P0001
KEBS 190535Z AUTO 31014G22KT 1 1/2SM +RA BKN005 OVC008 15/15 A2952 RMK AO2
KEBS 190515Z AUTO 31014KT 2 1/2SM -RA BKN005 OVC014 15/15 A2953 RMK AO2
KEBS 190455Z AUTO 31015KT 2 1/2SM -RA OVC004 16/16 A2954 RMK AO2
KEBS 190435Z AUTO 31014KT 3SM -RA BKN004 OVC024 16/16 A2954 RMK AO2
KEBS 190415Z AUTO 31015KT 2 1/2SM RA SCT005 BKN014 OVC031 16/16 A2955 RMK AO2
KEBS 190355Z AUTO 30014G19KT 2SM RA FEW005 SCT010 BKN015 16/16 A2956 RMK AO2 P0003
KEBS 190335Z AUTO 29010KT 2SM RA FEW003 BKN013 OVC034 16/16 A2957 RMK AO2
KEBS 190315Z AUTO 31004G11KT 1 1/4SM RA SCT003 OVC011 16/16 A2957 RMK AO2
KEBS 190255Z AUTO 34003KT 6SM BR FEW012 BKN026 OVC035 17/17 A2958 RMK AO2
KEBS 190235Z AUTO 34005KT 7SM -DZ SCT038 BKN043 OVC050 17/17 A2957 RMK AO2
KEBS 190215Z AUTO 34005KT 8SM -RA BKN055 BKN065 OVC085 17/17 A2957 RMK AO2
KEBS 190155Z AUTO 33005KT 6SM -RA SCT065 BKN075 OVC100 17/17 A2957 RMK AO2 P0001
KEBS 190135Z AUTO 33005KT 9SM -DZ FEW041 SCT060 BKN075 17/17 A2956 RMK AO2
KEBS 190115Z AUTO 36005KT 5SM -RA SCT039 SCT048 BKN060 17/17 A2956 RMK AO2
KEBS 190055Z AUTO 00000KT 7SM -DZ FEW036 SCT050 BKN075 17/17 A2957 RMK AO2
KEBS 190035Z AUTO 18004KT 4SM -RA SCT036 BKN050 OVC085 17/17 A2958 RMK AO2
KEBS 190015Z AUTO 19008KT -RA 18/18 A2959 RMK AO2
KEBS 182355Z AUTO 19008KT 5SM -RA FEW037 SCT060 BKN070 18/18 A2960 RMK AO2
KEBS 182335Z AUTO 10/04166710KT 9SM FEW020 SCT060 BKN075 19/18 A2960 RMK AO2
KEBS 182315Z AUTO 22012KT 10SM SCT020 SCT100 19/17 A2960 RMK AO2
KEBS 182255Z AUTO 22011G19KT 10SM CLR 20/17 A2960 RMK AO2
KEBS 182235Z AUTO 21015G21KT 10SM FEW055 20/17 A2957 RMK AO2
KEBS 182215Z AUTO 22021G26KT 10SM FEW039 SCT045 BKN055 21/17 A2956 RMK AO2
KEBS 182155Z AUTO 21022KT 10SM SCT039 BKN045 OVC055 24/17 A2957 RMK AO2
KEBS 182135Z AUTO 23012G18KT 10SM SCT049 BKN055 25/17 A2958 RMK AO2
KEBS 182115Z AUTO 23014G20KT 10SM SCT050 SCT060 SCT070 25/18 A2957 RMK AO2
KEBS 182055Z AUTO 22013KT 10SM SCT050 BKN055 BKN070 25/18 A2958 RMK AO2
KEBS 182035Z AUTO 21011KT 10SM BKN050 BKN060 BKN085 25/18 A2958 RMK AO2
KEBS 182015Z AUTO 22010G16KT 10SM BKN050 BKN060 BKN075 25/17 A2959 RMK AO2
KEBS 181955Z AUTO 22012KT 10SM BKN050 OVC065 25/17 A2959 RMK AO2
KEBS 181935Z AUTO 22012KT 10SM OVC055 26/17 A2958 RMK AO2
KEBS 181915Z AUTO 23016KT 10SM OVC055 26/16 A2957 RMK AO2
KEBS 181855Z AUTO 24015KT 10SM OVC055 26/16 A2955 RMK AO2
KEBS 181835Z AUTO 24019G29KT 10SM BKN055 27/16 A2957 RMK AO2
KEBS 181815Z AUTO 24019G25KT 10SM FEW060 27/16 A2956 RMK AO2
KEBS 181755Z AUTO 22013G19KT 10SM CLR 26/17 A2955 RMK AO2
KEBS 181735Z AUTO 23017KT 10SM CLR 26/18 A2955 RMK AO2
KEBS 181715Z AUTO 23016KT 10SM CLR 26/19 A2955 RMK AO2
KEBS 181655Z AUTO 21017G23KT 10SM CLR 25/18 A2956 RMK AO2
KEBS 181635Z AUTO 19014G20KT 10SM CLR 24/20 A2955 RMK AO2
KEBS 181615Z AUTO 17015KT 10SM CLR 23/20 A2954 RMK AO2
KEBS 181555Z AUTO 18016KT 10SM CLR 23/19 A2952 RMK AO2
KEBS 181535Z AUTO 16018KT 10SM CLR 22/20 A2951 RMK AO2
KEBS 181515Z AUTO 15014KT 10SM CLR 20/20 A2950 RMK AO2
KEBS 181455Z AUTO 14017G25KT 10SM CLR 19/19 A2949 RMK AO2
KEBS 181435Z AUTO 14020G32KT 18/18 A2952 RMK AO2
KEBS 181415Z AUTO 14017G22KT 8SM CLR 18/18 A2957 RMK AO2
KEBS 181355Z AUTO 15018G25KT 7SM CLR 17/17 A2959 RMK AO2
KEBS 181335Z AUTO 13017G23KT 5SM BR CLR 17/17 A2956 RMK AO2
KEBS 181315Z AUTO 13016KT 3SM BR FEW100 16/16 A2957 RMK AO2
KEBS 181255Z AUTO 13016KT 3SM BR FEW100 15/15 A2959 RMK AO2
KEBS 181235Z AUTO 14012KT 2 1/2SM BR FEW110 15/15 A2960 RMK AO2
KEBS 181215Z AUTO 14013KT 2SM BR CLR 15/15 A2961 RMK AO2
KEBS 181155Z AUTO 14012G17KT 2SM BR FEW090 14/14 A2962 RMK AO2
KEBS 181135Z AUTO 13014KT 2SM BR FEW006 OVC090 14/14 A2962 RMK AO2
KEBS 181115Z AUTO 12010KT 1 1/2SM BR BKN005 OVC090 14/14 A2962 RMK AO2
KEBS 181055Z AUTO 12012KT 1 3/4SM BR BKN004 OVC095 14/14 A2963 RMK AO2
KEBS 181035Z AUTO 12012KT 3SM BR BKN005 BKN085 OVC100 14/14 A2962 RMK AO2
KEBS 181015Z AUTO 11012KT 3SM BR BKN006 BKN060 BKN080 14/14 A2962 RMK AO2
KEBS 180955Z AUTO 12011KT 3SM BR SCT004 SCT018 BKN090 14/14 A2962 RMK AO2
KEBS 180935Z AUTO 12014KT 3SM BR BKN005 BKN018 OVC080 14/14 A2961 RMK AO2